sensor_id;sensor_type;location;lat;lon;timestamp;P1;durP1;ratioP1;P2;durP2;ratioP2
20375;SDS011;10347;51.828;6.466;2024-01-07T00:01:13;27.98;;;16.98;;
20375;SDS011;10347;51.828;6.466;2024-01-07T00:03:40;33.53;;;19.13;;
20375;SDS011;10347;51.828;6.466;2024-01-07T00:06:06;27.63;;;17.55;;
20375;SDS011;10347;51.828;6.466;2024-01-07T00:08:32;27.20;;;16.92;;
20375;SDS011;10347;51.828;6.466;2024-01-07T00:10:57;27.50;;;16.42;;
20375;SDS011;10347;51.828;6.466;2024-01-07T00:13:23;22.63;;;14.75;;
20375;SDS011;10347;51.828;6.466;2024-01-07T00:15:48;24.08;;;14.85;;
20375;SDS011;10347;51.828;6.466;2024-01-07T00:18:14;30.10;;;17.23;;
20375;SDS011;10347;51.828;6.466;2024-01-07T00:20:39;25.27;;;15.35;;
20375;SDS011;10347;51.828;6.466;2024-01-07T00:23:05;27.00;;;16.10;;
20375;SDS011;10347;51.828;6.466;2024-01-07T00:25:30;24.45;;;15.27;;
20375;SDS011;10347;51.828;6.466;2024-01-07T00:27:56;25.77;;;15.77;;
20375;SDS011;10347;51.828;6.466;2024-01-07T00:30:22;25.30;;;15.23;;
20375;SDS011;10347;51.828;6.466;2024-01-07T00:32:47;25.88;;;16.27;;
20375;SDS011;10347;51.828;6.466;2024-01-07T00:35:16;28.20;;;16.77;;
20375;SDS011;10347;51.828;6.466;2024-01-07T00:37:41;29.15;;;17.20;;
20375;SDS011;10347;51.828;6.466;2024-01-07T00:40:07;35.30;;;19.35;;
20375;SDS011;10347;51.828;6.466;2024-01-07T00:42:33;30.02;;;17.83;;
20375;SDS011;10347;51.828;6.466;2024-01-07T00:44:59;30.90;;;17.92;;
20375;SDS011;10347;51.828;6.466;2024-01-07T00:47:24;34.05;;;17.13;;
20375;SDS011;10347;51.828;6.466;2024-01-07T00:49:50;32.08;;;17.85;;
20375;SDS011;10347;51.828;6.466;2024-01-07T00:52:15;29.45;;;16.55;;
20375;SDS011;10347;51.828;6.466;2024-01-07T00:54:41;25.92;;;15.20;;
20375;SDS011;10347;51.828;6.466;2024-01-07T00:57:06;24.48;;;14.90;;
20375;SDS011;10347;51.828;6.466;2024-01-07T00:59:32;25.90;;;15.00;;
20375;SDS011;10347;51.828;6.466;2024-01-07T01:01:57;27.52;;;15.88;;
20375;SDS011;10347;51.828;6.466;2024-01-07T01:04:23;31.38;;;16.38;;
20375;SDS011;10347;51.828;6.466;2024-01-07T01:06:48;24.70;;;14.50;;
20375;SDS011;10347;51.828;6.466;2024-01-07T01:09:14;23.27;;;14.32;;
20375;SDS011;10347;51.828;6.466;2024-01-07T01:11:39;27.70;;;15.95;;
20375;SDS011;10347;51.828;6.466;2024-01-07T01:14:06;30.77;;;16.42;;
20375;SDS011;10347;51.828;6.466;2024-01-07T01:16:32;24.08;;;15.52;;
20375;SDS011;10347;51.828;6.466;2024-01-07T01:18:58;25.35;;;15.25;;
20375;SDS011;10347;51.828;6.466;2024-01-07T01:21:23;27.20;;;15.82;;
20375;SDS011;10347;51.828;6.466;2024-01-07T01:23:49;25.90;;;15.52;;
20375;SDS011;10347;51.828;6.466;2024-01-07T01:26:15;28.85;;;16.52;;
20375;SDS011;10347;51.828;6.466;2024-01-07T01:28:40;24.40;;;15.35;;
20375;SDS011;10347;51.828;6.466;2024-01-07T01:31:06;25.33;;;16.58;;
20375;SDS011;10347;51.828;6.466;2024-01-07T01:33:31;31.08;;;16.77;;
20375;SDS011;10347;51.828;6.466;2024-01-07T01:35:57;24.10;;;15.00;;
20375;SDS011;10347;51.828;6.466;2024-01-07T01:38:22;28.98;;;16.42;;
20375;SDS011;10347;51.828;6.466;2024-01-07T01:40:54;23.08;;;14.90;;
20375;SDS011;10347;51.828;6.466;2024-01-07T01:43:23;23.15;;;15.52;;
20375;SDS011;10347;51.828;6.466;2024-01-07T01:45:50;25.08;;;14.35;;
20375;SDS011;10347;51.828;6.466;2024-01-07T01:48:16;23.52;;;14.48;;
20375;SDS011;10347;51.828;6.466;2024-01-07T01:50:42;24.65;;;14.73;;
20375;SDS011;10347;51.828;6.466;2024-01-07T01:53:07;26.42;;;15.50;;
20375;SDS011;10347;51.828;6.466;2024-01-07T01:55:33;26.88;;;16.25;;
20375;SDS011;10347;51.828;6.466;2024-01-07T01:57:59;29.42;;;17.23;;
20375;SDS011;10347;51.828;6.466;2024-01-07T02:00:28;31.17;;;17.77;;
20375;SDS011;10347;51.828;6.466;2024-01-07T02:02:54;26.02;;;15.85;;
20375;SDS011;10347;51.828;6.466;2024-01-07T02:05:20;29.50;;;16.55;;
20375;SDS011;10347;51.828;6.466;2024-01-07T02:07:46;26.10;;;15.00;;
20375;SDS011;10347;51.828;6.466;2024-01-07T02:10:12;27.42;;;15.55;;
20375;SDS011;10347;51.828;6.466;2024-01-07T02:12:38;24.23;;;14.73;;
20375;SDS011;10347;51.828;6.466;2024-01-07T02:15:04;22.48;;;14.27;;
20375;SDS011;10347;51.828;6.466;2024-01-07T02:17:30;21.38;;;13.70;;
20375;SDS011;10347;51.828;6.466;2024-01-07T02:19:56;24.08;;;14.20;;
20375;SDS011;10347;51.828;6.466;2024-01-07T02:22:21;25.88;;;14.60;;
20375;SDS011;10347;51.828;6.466;2024-01-07T02:24:47;22.15;;;13.35;;
20375;SDS011;10347;51.828;6.466;2024-01-07T02:27:12;25.17;;;14.23;;
20375;SDS011;10347;51.828;6.466;2024-01-07T02:29:38;20.13;;;13.50;;
20375;SDS011;10347;51.828;6.466;2024-01-07T02:32:04;20.27;;;12.80;;
20375;SDS011;10347;51.828;6.466;2024-01-07T02:34:30;21.80;;;12.75;;
20375;SDS011;10347;51.828;6.466;2024-01-07T02:36:55;23.50;;;14.25;;
20375;SDS011;10347;51.828;6.466;2024-01-07T02:39:21;16.90;;;11.73;;
20375;SDS011;10347;51.828;6.466;2024-01-07T02:41:47;19.17;;;12.52;;
20375;SDS011;10347;51.828;6.466;2024-01-07T02:44:13;17.98;;;11.88;;
20375;SDS011;10347;51.828;6.466;2024-01-07T02:46:38;18.83;;;12.65;;
20375;SDS011;10347;51.828;6.466;2024-01-07T02:49:04;19.75;;;12.32;;
20375;SDS011;10347;51.828;6.466;2024-01-07T02:51:29;20.63;;;13.50;;
20375;SDS011;10347;51.828;6.466;2024-01-07T02:53:55;19.63;;;12.48;;
20375;SDS011;10347;51.828;6.466;2024-01-07T02:56:20;21.40;;;13.98;;
20375;SDS011;10347;51.828;6.466;2024-01-07T02:58:46;16.95;;;11.52;;
20375;SDS011;10347;51.828;6.466;2024-01-07T03:01:11;20.17;;;13.73;;
20375;SDS011;10347;51.828;6.466;2024-01-07T03:03:37;18.67;;;12.65;;
20375;SDS011;10347;51.828;6.466;2024-01-07T03:06:03;17.33;;;11.98;;
20375;SDS011;10347;51.828;6.466;2024-01-07T03:08:29;19.75;;;12.50;;
20375;SDS011;10347;51.828;6.466;2024-01-07T03:10:55;22.90;;;12.77;;
20375;SDS011;10347;51.828;6.466;2024-01-07T03:13:20;18.00;;;11.55;;
20375;SDS011;10347;51.828;6.466;2024-01-07T03:15:46;18.20;;;11.55;;
20375;SDS011;10347;51.828;6.466;2024-01-07T03:18:11;18.42;;;12.13;;
20375;SDS011;10347;51.828;6.466;2024-01-07T03:20:37;15.15;;;11.00;;
20375;SDS011;10347;51.828;6.466;2024-01-07T03:23:03;16.02;;;10.98;;
20375;SDS011;10347;51.828;6.466;2024-01-07T03:25:28;17.55;;;11.20;;
20375;SDS011;10347;51.828;6.466;2024-01-07T03:27:54;17.98;;;11.40;;
20375;SDS011;10347;51.828;6.466;2024-01-07T03:30:19;19.15;;;12.20;;
20375;SDS011;10347;51.828;6.466;2024-01-07T03:32:45;17.20;;;10.18;;
20375;SDS011;10347;51.828;6.466;2024-01-07T03:35:10;18.30;;;10.63;;
20375;SDS011;10347;51.828;6.466;2024-01-07T03:37:36;16.17;;;10.65;;
20375;SDS011;10347;51.828;6.466;2024-01-07T03:40:02;16.55;;;10.95;;
20375;SDS011;10347;51.828;6.466;2024-01-07T03:42:27;15.73;;;10.90;;
20375;SDS011;10347;51.828;6.466;2024-01-07T03:44:53;15.38;;;10.88;;
20375;SDS011;10347;51.828;6.466;2024-01-07T03:47:18;17.17;;;11.65;;
20375;SDS011;10347;51.828;6.466;2024-01-07T03:49:44;19.75;;;11.23;;
20375;SDS011;10347;51.828;6.466;2024-01-07T03:52:09;19.55;;;12.00;;
20375;SDS011;10347;51.828;6.466;2024-01-07T03:54:35;14.82;;;9.93;;
20375;SDS011;10347;51.828;6.466;2024-01-07T03:57:00;15.18;;;10.25;;
20375;SDS011;10347;51.828;6.466;2024-01-07T03:59:26;16.25;;;11.02;;
20375;SDS011;10347;51.828;6.466;2024-01-07T04:01:55;15.55;;;9.93;;
20375;SDS011;10347;51.828;6.466;2024-01-07T04:04:22;15.32;;;10.07;;
20375;SDS011;10347;51.828;6.466;2024-01-07T04:06:48;16.48;;;10.02;;
20375;SDS011;10347;51.828;6.466;2024-01-07T04:09:13;13.75;;;9.73;;
20375;SDS011;10347;51.828;6.466;2024-01-07T04:11:42;12.85;;;9.57;;
20375;SDS011;10347;51.828;6.466;2024-01-07T04:14:08;12.63;;;9.23;;
20375;SDS011;10347;51.828;6.466;2024-01-07T04:16:34;14.82;;;9.93;;
20375;SDS011;10347;51.828;6.466;2024-01-07T04:19:00;13.25;;;9.35;;
20375;SDS011;10347;51.828;6.466;2024-01-07T04:21:25;14.38;;;10.48;;
20375;SDS011;10347;51.828;6.466;2024-01-07T04:23:51;12.80;;;9.52;;
20375;SDS011;10347;51.828;6.466;2024-01-07T04:26:16;15.20;;;10.40;;
20375;SDS011;10347;51.828;6.466;2024-01-07T04:28:42;15.90;;;10.65;;
20375;SDS011;10347;51.828;6.466;2024-01-07T04:31:08;12.32;;;9.00;;
20375;SDS011;10347;51.828;6.466;2024-01-07T04:33:34;13.95;;;9.95;;
20375;SDS011;10347;51.828;6.466;2024-01-07T04:36:00;16.08;;;10.75;;
20375;SDS011;10347;51.828;6.466;2024-01-07T04:38:26;14.60;;;10.45;;
20375;SDS011;10347;51.828;6.466;2024-01-07T04:40:52;13.70;;;9.75;;
20375;SDS011;10347;51.828;6.466;2024-01-07T04:43:18;15.10;;;10.13;;
20375;SDS011;10347;51.828;6.466;2024-01-07T04:45:44;16.58;;;10.25;;
20375;SDS011;10347;51.828;6.466;2024-01-07T04:48:09;13.90;;;9.48;;
20375;SDS011;10347;51.828;6.466;2024-01-07T04:50:35;13.45;;;10.57;;
20375;SDS011;10347;51.828;6.466;2024-01-07T04:53:01;13.98;;;10.05;;
20375;SDS011;10347;51.828;6.466;2024-01-07T04:55:27;13.80;;;9.90;;
20375;SDS011;10347;51.828;6.466;2024-01-07T04:57:54;12.43;;;8.70;;
20375;SDS011;10347;51.828;6.466;2024-01-07T05:00:20;12.80;;;9.38;;
20375;SDS011;10347;51.828;6.466;2024-01-07T05:02:45;16.60;;;10.80;;
20375;SDS011;10347;51.828;6.466;2024-01-07T05:05:11;13.65;;;10.43;;
20375;SDS011;10347;51.828;6.466;2024-01-07T05:07:37;14.90;;;11.15;;
20375;SDS011;10347;51.828;6.466;2024-01-07T05:10:03;13.35;;;10.40;;
20375;SDS011;10347;51.828;6.466;2024-01-07T05:12:29;12.52;;;10.13;;
20375;SDS011;10347;51.828;6.466;2024-01-07T05:14:55;14.35;;;10.48;;
20375;SDS011;10347;51.828;6.466;2024-01-07T05:17:20;13.98;;;10.45;;
20375;SDS011;10347;51.828;6.466;2024-01-07T05:19:46;13.80;;;10.23;;
20375;SDS011;10347;51.828;6.466;2024-01-07T05:22:11;13.70;;;10.10;;
20375;SDS011;10347;51.828;6.466;2024-01-07T05:24:37;15.88;;;10.52;;
20375;SDS011;10347;51.828;6.466;2024-01-07T05:27:05;14.38;;;10.65;;
20375;SDS011;10347;51.828;6.466;2024-01-07T05:29:31;16.42;;;11.23;;
20375;SDS011;10347;51.828;6.466;2024-01-07T05:32:00;16.17;;;11.32;;
20375;SDS011;10347;51.828;6.466;2024-01-07T05:34:27;13.75;;;9.82;;
20375;SDS011;10347;51.828;6.466;2024-01-07T05:36:53;15.32;;;10.05;;
20375;SDS011;10347;51.828;6.466;2024-01-07T05:39:19;13.20;;;9.60;;
20375;SDS011;10347;51.828;6.466;2024-01-07T05:41:45;17.05;;;12.25;;
20375;SDS011;10347;51.828;6.466;2024-01-07T05:44:11;15.95;;;11.00;;
20375;SDS011;10347;51.828;6.466;2024-01-07T05:46:40;19.00;;;11.63;;
20375;SDS011;10347;51.828;6.466;2024-01-07T05:49:06;18.35;;;11.82;;
20375;SDS011;10347;51.828;6.466;2024-01-07T05:51:33;17.35;;;11.93;;
20375;SDS011;10347;51.828;6.466;2024-01-07T05:53:58;16.40;;;11.25;;
20375;SDS011;10347;51.828;6.466;2024-01-07T05:56:24;18.05;;;11.50;;
20375;SDS011;10347;51.828;6.466;2024-01-07T05:58:49;19.65;;;11.55;;
20375;SDS011;10347;51.828;6.466;2024-01-07T06:01:19;19.60;;;12.38;;
20375;SDS011;10347;51.828;6.466;2024-01-07T06:03:46;16.55;;;11.80;;
20375;SDS011;10347;51.828;6.466;2024-01-07T06:06:13;18.05;;;11.82;;
20375;SDS011;10347;51.828;6.466;2024-01-07T06:08:39;19.20;;;11.07;;
20375;SDS011;10347;51.828;6.466;2024-01-07T06:11:05;20.05;;;12.20;;
20375;SDS011;10347;51.828;6.466;2024-01-07T06:13:31;16.63;;;10.98;;
20375;SDS011;10347;51.828;6.466;2024-01-07T06:15:57;15.35;;;11.10;;
20375;SDS011;10347;51.828;6.466;2024-01-07T06:18:22;18.95;;;11.30;;
20375;SDS011;10347;51.828;6.466;2024-01-07T06:20:48;18.65;;;11.68;;
20375;SDS011;10347;51.828;6.466;2024-01-07T06:23:14;17.58;;;12.38;;
20375;SDS011;10347;51.828;6.466;2024-01-07T06:25:39;19.13;;;12.70;;
20375;SDS011;10347;51.828;6.466;2024-01-07T06:28:05;17.48;;;12.50;;
20375;SDS011;10347;51.828;6.466;2024-01-07T06:30:31;16.83;;;11.75;;
20375;SDS011;10347;51.828;6.466;2024-01-07T06:32:56;20.00;;;12.07;;
20375;SDS011;10347;51.828;6.466;2024-01-07T06:35:25;17.75;;;11.63;;
20375;SDS011;10347;51.828;6.466;2024-01-07T06:37:51;17.50;;;11.10;;
20375;SDS011;10347;51.828;6.466;2024-01-07T06:40:16;19.92;;;12.50;;
20375;SDS011;10347;51.828;6.466;2024-01-07T06:42:42;21.40;;;12.63;;
20375;SDS011;10347;51.828;6.466;2024-01-07T06:45:09;18.52;;;11.80;;
20375;SDS011;10347;51.828;6.466;2024-01-07T06:47:34;14.05;;;10.77;;
20375;SDS011;10347;51.828;6.466;2024-01-07T06:50:00;16.83;;;11.57;;
20375;SDS011;10347;51.828;6.466;2024-01-07T06:52:25;18.77;;;10.80;;
20375;SDS011;10347;51.828;6.466;2024-01-07T06:54:51;19.92;;;11.55;;
20375;SDS011;10347;51.828;6.466;2024-01-07T06:57:16;15.48;;;10.85;;
20375;SDS011;10347;51.828;6.466;2024-01-07T06:59:42;17.52;;;11.07;;
20375;SDS011;10347;51.828;6.466;2024-01-07T07:02:07;18.48;;;11.32;;
20375;SDS011;10347;51.828;6.466;2024-01-07T07:04:33;16.40;;;10.82;;
20375;SDS011;10347;51.828;6.466;2024-01-07T07:06:59;16.45;;;11.00;;
20375;SDS011;10347;51.828;6.466;2024-01-07T07:09:25;13.52;;;10.32;;
20375;SDS011;10347;51.828;6.466;2024-01-07T07:11:50;17.75;;;11.10;;
20375;SDS011;10347;51.828;6.466;2024-01-07T07:14:16;18.15;;;11.13;;
20375;SDS011;10347;51.828;6.466;2024-01-07T07:16:41;19.20;;;11.40;;
20375;SDS011;10347;51.828;6.466;2024-01-07T07:19:07;15.50;;;10.10;;
20375;SDS011;10347;51.828;6.466;2024-01-07T07:21:32;14.95;;;10.32;;
20375;SDS011;10347;51.828;6.466;2024-01-07T07:23:58;13.30;;;9.57;;
20375;SDS011;10347;51.828;6.466;2024-01-07T07:26:23;15.52;;;10.85;;
20375;SDS011;10347;51.828;6.466;2024-01-07T07:28:49;14.25;;;10.32;;
20375;SDS011;10347;51.828;6.466;2024-01-07T07:31:15;13.73;;;9.68;;
20375;SDS011;10347;51.828;6.466;2024-01-07T07:33:40;14.95;;;10.00;;
20375;SDS011;10347;51.828;6.466;2024-01-07T07:36:06;14.48;;;10.13;;
20375;SDS011;10347;51.828;6.466;2024-01-07T07:38:32;14.90;;;9.52;;
20375;SDS011;10347;51.828;6.466;2024-01-07T07:40:59;14.40;;;9.52;;
20375;SDS011;10347;51.828;6.466;2024-01-07T07:43:25;13.93;;;9.35;;
20375;SDS011;10347;51.828;6.466;2024-01-07T07:45:51;12.75;;;9.20;;
20375;SDS011;10347;51.828;6.466;2024-01-07T07:48:16;13.30;;;9.02;;
20375;SDS011;10347;51.828;6.466;2024-01-07T07:50:43;13.10;;;9.48;;
20375;SDS011;10347;51.828;6.466;2024-01-07T07:53:08;12.20;;;9.15;;
20375;SDS011;10347;51.828;6.466;2024-01-07T07:55:34;12.77;;;9.35;;
20375;SDS011;10347;51.828;6.466;2024-01-07T07:58:00;12.27;;;8.80;;
20375;SDS011;10347;51.828;6.466;2024-01-07T08:00:25;11.68;;;8.77;;
20375;SDS011;10347;51.828;6.466;2024-01-07T08:02:51;11.05;;;8.60;;
20375;SDS011;10347;51.828;6.466;2024-01-07T08:05:16;12.68;;;8.95;;
20375;SDS011;10347;51.828;6.466;2024-01-07T08:07:42;12.60;;;8.43;;
20375;SDS011;10347;51.828;6.466;2024-01-07T08:10:08;12.15;;;8.32;;
20375;SDS011;10347;51.828;6.466;2024-01-07T08:12:33;11.95;;;8.45;;
20375;SDS011;10347;51.828;6.466;2024-01-07T08:14:59;14.80;;;8.35;;
20375;SDS011;10347;51.828;6.466;2024-01-07T08:17:25;10.90;;;7.82;;
20375;SDS011;10347;51.828;6.466;2024-01-07T08:19:51;10.93;;;8.05;;
20375;SDS011;10347;51.828;6.466;2024-01-07T08:22:17;8.85;;;7.35;;
20375;SDS011;10347;51.828;6.466;2024-01-07T08:24:43;9.35;;;7.85;;
20375;SDS011;10347;51.828;6.466;2024-01-07T08:27:08;10.82;;;7.80;;
20375;SDS011;10347;51.828;6.466;2024-01-07T08:29:34;9.40;;;8.27;;
20375;SDS011;10347;51.828;6.466;2024-01-07T08:32:00;10.15;;;7.68;;
20375;SDS011;10347;51.828;6.466;2024-01-07T08:34:32;14.05;;;9.18;;
20375;SDS011;10347;51.828;6.466;2024-01-07T08:36:57;14.57;;;10.52;;
20375;SDS011;10347;51.828;6.466;2024-01-07T08:39:23;11.38;;;8.32;;
20375;SDS011;10347;51.828;6.466;2024-01-07T08:41:50;8.90;;;8.00;;
20375;SDS011;10347;51.828;6.466;2024-01-07T08:44:16;8.32;;;7.28;;
20375;SDS011;10347;51.828;6.466;2024-01-07T08:46:41;9.85;;;8.00;;
20375;SDS011;10347;51.828;6.466;2024-01-07T08:49:07;11.23;;;8.32;;
20375;SDS011;10347;51.828;6.466;2024-01-07T08:51:33;11.40;;;8.40;;
20375;SDS011;10347;51.828;6.466;2024-01-07T08:53:58;13.18;;;8.35;;
20375;SDS011;10347;51.828;6.466;2024-01-07T08:56:24;9.95;;;8.70;;
20375;SDS011;10347;51.828;6.466;2024-01-07T08:58:50;9.75;;;8.02;;
20375;SDS011;10347;51.828;6.466;2024-01-07T09:01:17;13.18;;;10.77;;
20375;SDS011;10347;51.828;6.466;2024-01-07T09:03:42;10.32;;;8.70;;
20375;SDS011;10347;51.828;6.466;2024-01-07T09:06:08;9.23;;;8.02;;
20375;SDS011;10347;51.828;6.466;2024-01-07T09:08:34;11.80;;;9.35;;
20375;SDS011;10347;51.828;6.466;2024-01-07T09:11:00;12.50;;;8.27;;
20375;SDS011;10347;51.828;6.466;2024-01-07T09:13:26;10.95;;;8.95;;
20375;SDS011;10347;51.828;6.466;2024-01-07T09:15:57;9.55;;;7.25;;
20375;SDS011;10347;51.828;6.466;2024-01-07T09:18:22;9.52;;;7.53;;
20375;SDS011;10347;51.828;6.466;2024-01-07T09:20:48;7.72;;;6.80;;
20375;SDS011;10347;51.828;6.466;2024-01-07T09:23:13;9.57;;;6.82;;
20375;SDS011;10347;51.828;6.466;2024-01-07T09:25:40;8.85;;;7.30;;
20375;SDS011;10347;51.828;6.466;2024-01-07T09:28:07;8.32;;;7.43;;
20375;SDS011;10347;51.828;6.466;2024-01-07T09:30:32;11.45;;;8.18;;
20375;SDS011;10347;51.828;6.466;2024-01-07T09:32:58;9.57;;;7.05;;
20375;SDS011;10347;51.828;6.466;2024-01-07T09:35:24;9.00;;;6.57;;
20375;SDS011;10347;51.828;6.466;2024-01-07T09:37:50;11.75;;;7.78;;
20375;SDS011;10347;51.828;6.466;2024-01-07T09:40:16;9.90;;;7.22;;
20375;SDS011;10347;51.828;6.466;2024-01-07T09:42:44;10.70;;;7.60;;
20375;SDS011;10347;51.828;6.466;2024-01-07T09:45:10;10.25;;;7.07;;
20375;SDS011;10347;51.828;6.466;2024-01-07T09:47:38;12.63;;;7.95;;
20375;SDS011;10347;51.828;6.466;2024-01-07T09:50:05;11.27;;;7.32;;
20375;SDS011;10347;51.828;6.466;2024-01-07T09:52:32;11.55;;;7.40;;
20375;SDS011;10347;51.828;6.466;2024-01-07T09:55:00;11.23;;;7.75;;
20375;SDS011;10347;51.828;6.466;2024-01-07T09:57:28;12.27;;;8.20;;
20375;SDS011;10347;51.828;6.466;2024-01-07T09:59:55;9.52;;;7.47;;
20375;SDS011;10347;51.828;6.466;2024-01-07T10:02:20;12.27;;;8.15;;
20375;SDS011;10347;51.828;6.466;2024-01-07T10:04:49;13.15;;;8.48;;
20375;SDS011;10347;51.828;6.466;2024-01-07T10:07:27;12.50;;;9.85;;
20375;SDS011;10347;51.828;6.466;2024-01-07T10:09:56;13.25;;;7.80;;
20375;SDS011;10347;51.828;6.466;2024-01-07T10:12:24;10.32;;;7.53;;
20375;SDS011;10347;51.828;6.466;2024-01-07T10:14:51;11.20;;;7.03;;
20375;SDS011;10347;51.828;6.466;2024-01-07T10:17:17;8.95;;;7.05;;
20375;SDS011;10347;51.828;6.466;2024-01-07T10:19:43;10.32;;;6.78;;
20375;SDS011;10347;51.828;6.466;2024-01-07T10:22:12;9.52;;;6.35;;
20375;SDS011;10347;51.828;6.466;2024-01-07T10:24:39;8.50;;;6.60;;
20375;SDS011;10347;51.828;6.466;2024-01-07T10:27:06;8.77;;;5.93;;
20375;SDS011;10347;51.828;6.466;2024-01-07T10:29:33;7.15;;;5.38;;
20375;SDS011;10347;51.828;6.466;2024-01-07T10:31:59;7.55;;;5.50;;
20375;SDS011;10347;51.828;6.466;2024-01-07T10:34:35;7.07;;;5.45;;
20375;SDS011;10347;51.828;6.466;2024-01-07T10:37:02;6.45;;;4.90;;
20375;SDS011;10347;51.828;6.466;2024-01-07T10:39:32;7.25;;;5.15;;
20375;SDS011;10347;51.828;6.466;2024-01-07T10:41:58;5.80;;;4.63;;
20375;SDS011;10347;51.828;6.466;2024-01-07T10:44:29;7.05;;;5.07;;
20375;SDS011;10347;51.828;6.466;2024-01-07T10:46:55;5.60;;;4.60;;
20375;SDS011;10347;51.828;6.466;2024-01-07T10:49:23;5.90;;;4.47;;
20375;SDS011;10347;51.828;6.466;2024-01-07T10:52:05;7.13;;;4.38;;
20375;SDS011;10347;51.828;6.466;2024-01-07T10:54:33;6.40;;;4.53;;
20375;SDS011;10347;51.828;6.466;2024-01-07T10:59:54;5.93;;;4.57;;
20375;SDS011;10347;51.828;6.466;2024-01-07T11:02:21;5.82;;;4.40;;
20375;SDS011;10347;51.828;6.466;2024-01-07T11:04:56;6.43;;;4.85;;
20375;SDS011;10347;51.828;6.466;2024-01-07T11:07:34;14.93;;;8.70;;
20375;SDS011;10347;51.828;6.466;2024-01-07T11:12:38;6.50;;;4.78;;
20375;SDS011;10347;51.828;6.466;2024-01-07T11:15:04;5.93;;;4.55;;
20375;SDS011;10347;51.828;6.466;2024-01-07T11:17:40;6.25;;;4.78;;
20375;SDS011;10347;51.828;6.466;2024-01-07T11:20:12;5.40;;;4.35;;
20375;SDS011;10347;51.828;6.466;2024-01-07T11:22:42;5.55;;;4.50;;
20375;SDS011;10347;51.828;6.466;2024-01-07T11:27:53;5.47;;;3.83;;
20375;SDS011;10347;51.828;6.466;2024-01-07T11:30:20;4.85;;;4.32;;
20375;SDS011;10347;51.828;6.466;2024-01-07T11:32:46;4.80;;;4.40;;
20375;SDS011;10347;51.828;6.466;2024-01-07T11:35:14;6.55;;;5.35;;
20375;SDS011;10347;51.828;6.466;2024-01-07T11:37:40;7.85;;;5.70;;
20375;SDS011;10347;51.828;6.466;2024-01-07T11:40:08;5.35;;;4.25;;
20375;SDS011;10347;51.828;6.466;2024-01-07T11:42:34;6.90;;;5.03;;
20375;SDS011;10347;51.828;6.466;2024-01-07T11:45:02;5.32;;;4.15;;
20375;SDS011;10347;51.828;6.466;2024-01-07T11:47:28;9.52;;;6.60;;
20375;SDS011;10347;51.828;6.466;2024-01-07T11:49:53;16.85;;;9.27;;
20375;SDS011;10347;51.828;6.466;2024-01-07T11:52:19;33.65;;;15.68;;
20375;SDS011;10347;51.828;6.466;2024-01-07T11:54:46;50.38;;;21.77;;
20375;SDS011;10347;51.828;6.466;2024-01-07T11:57:13;16.05;;;8.63;;
20375;SDS011;10347;51.828;6.466;2024-01-07T11:59:39;29.77;;;14.77;;
20375;SDS011;10347;51.828;6.466;2024-01-07T12:02:04;24.52;;;13.25;;
20375;SDS011;10347;51.828;6.466;2024-01-07T12:04:31;15.45;;;8.57;;
20375;SDS011;10347;51.828;6.466;2024-01-07T12:06:57;13.10;;;7.63;;
20375;SDS011;10347;51.828;6.466;2024-01-07T12:09:23;37.50;;;17.58;;
20375;SDS011;10347;51.828;6.466;2024-01-07T12:11:49;21.98;;;10.88;;
20375;SDS011;10347;51.828;6.466;2024-01-07T12:14:15;16.30;;;9.13;;
20375;SDS011;10347;51.828;6.466;2024-01-07T12:16:41;15.23;;;8.80;;
20375;SDS011;10347;51.828;6.466;2024-01-07T12:19:10;48.00;;;21.83;;
20375;SDS011;10347;51.828;6.466;2024-01-07T12:21:36;49.15;;;22.48;;
20375;SDS011;10347;51.828;6.466;2024-01-07T12:24:03;10.30;;;6.72;;
20375;SDS011;10347;51.828;6.466;2024-01-07T12:26:29;9.30;;;6.40;;
20375;SDS011;10347;51.828;6.466;2024-01-07T12:28:57;6.47;;;4.40;;
20375;SDS011;10347;51.828;6.466;2024-01-07T12:31:33;7.13;;;4.90;;
20375;SDS011;10347;51.828;6.466;2024-01-07T12:33:59;7.38;;;4.60;;
20375;SDS011;10347;51.828;6.466;2024-01-07T12:36:25;16.55;;;9.32;;
20375;SDS011;10347;51.828;6.466;2024-01-07T12:38:51;10.73;;;6.53;;
20375;SDS011;10347;51.828;6.466;2024-01-07T12:41:19;4.38;;;3.67;;
20375;SDS011;10347;51.828;6.466;2024-01-07T12:43:48;5.22;;;4.28;;
20375;SDS011;10347;51.828;6.466;2024-01-07T12:46:14;6.03;;;3.85;;
20375;SDS011;10347;51.828;6.466;2024-01-07T12:48:40;3.70;;;3.05;;
20375;SDS011;10347;51.828;6.466;2024-01-07T12:51:05;8.02;;;5.70;;
20375;SDS011;10347;51.828;6.466;2024-01-07T12:53:31;10.95;;;6.35;;
20375;SDS011;10347;51.828;6.466;2024-01-07T12:55:57;10.25;;;6.65;;
20375;SDS011;10347;51.828;6.466;2024-01-07T12:58:22;4.63;;;3.67;;
20375;SDS011;10347;51.828;6.466;2024-01-07T13:00:48;4.88;;;4.47;;
20375;SDS011;10347;51.828;6.466;2024-01-07T13:03:13;2.90;;;2.70;;
20375;SDS011;10347;51.828;6.466;2024-01-07T13:05:45;7.72;;;5.07;;
20375;SDS011;10347;51.828;6.466;2024-01-07T13:08:13;3.95;;;3.35;;
20375;SDS011;10347;51.828;6.466;2024-01-07T13:10:39;4.95;;;3.97;;
20375;SDS011;10347;51.828;6.466;2024-01-07T13:13:05;6.60;;;4.40;;
20375;SDS011;10347;51.828;6.466;2024-01-07T13:15:30;7.60;;;4.75;;
20375;SDS011;10347;51.828;6.466;2024-01-07T13:17:56;4.10;;;3.70;;
20375;SDS011;10347;51.828;6.466;2024-01-07T13:20:22;3.53;;;3.22;;
20375;SDS011;10347;51.828;6.466;2024-01-07T13:22:48;4.53;;;3.50;;
20375;SDS011;10347;51.828;6.466;2024-01-07T13:25:14;5.05;;;4.35;;
20375;SDS011;10347;51.828;6.466;2024-01-07T13:27:40;3.92;;;3.50;;
20375;SDS011;10347;51.828;6.466;2024-01-07T13:30:07;7.70;;;3.88;;
20375;SDS011;10347;51.828;6.466;2024-01-07T13:32:33;3.92;;;3.28;;
20375;SDS011;10347;51.828;6.466;2024-01-07T13:35:04;4.50;;;3.55;;
20375;SDS011;10347;51.828;6.466;2024-01-07T13:37:35;3.00;;;2.80;;
20375;SDS011;10347;51.828;6.466;2024-01-07T13:40:01;5.10;;;3.20;;
20375;SDS011;10347;51.828;6.466;2024-01-07T13:42:26;3.80;;;3.60;;
20375;SDS011;10347;51.828;6.466;2024-01-07T13:44:52;3.83;;;3.03;;
20375;SDS011;10347;51.828;6.466;2024-01-07T13:47:17;4.18;;;3.15;;
20375;SDS011;10347;51.828;6.466;2024-01-07T13:49:44;4.05;;;3.60;;
20375;SDS011;10347;51.828;6.466;2024-01-07T13:52:12;3.28;;;2.97;;
20375;SDS011;10347;51.828;6.466;2024-01-07T13:54:38;5.15;;;3.40;;
20375;SDS011;10347;51.828;6.466;2024-01-07T13:57:04;3.30;;;3.00;;
20375;SDS011;10347;51.828;6.466;2024-01-07T13:59:30;3.70;;;2.85;;
20375;SDS011;10347;51.828;6.466;2024-01-07T14:01:55;3.20;;;2.97;;
20375;SDS011;10347;51.828;6.466;2024-01-07T14:04:24;3.08;;;2.88;;
20375;SDS011;10347;51.828;6.466;2024-01-07T14:06:54;3.00;;;2.80;;
20375;SDS011;10347;51.828;6.466;2024-01-07T14:09:20;3.92;;;3.40;;
20375;SDS011;10347;51.828;6.466;2024-01-07T14:11:46;3.08;;;2.88;;
20375;SDS011;10347;51.828;6.466;2024-01-07T14:14:12;3.35;;;3.05;;
20375;SDS011;10347;51.828;6.466;2024-01-07T14:16:37;4.40;;;3.42;;
20375;SDS011;10347;51.828;6.466;2024-01-07T14:19:05;3.67;;;3.20;;
20375;SDS011;10347;51.828;6.466;2024-01-07T14:21:31;3.50;;;3.03;;
20375;SDS011;10347;51.828;6.466;2024-01-07T14:23:56;4.47;;;3.30;;
20375;SDS011;10347;51.828;6.466;2024-01-07T14:26:22;3.33;;;3.10;;
20375;SDS011;10347;51.828;6.466;2024-01-07T14:28:49;3.25;;;2.95;;
20375;SDS011;10347;51.828;6.466;2024-01-07T14:31:15;3.08;;;2.60;;
20375;SDS011;10347;51.828;6.466;2024-01-07T14:33:42;4.20;;;2.55;;